Hutchinson, Kansas
Current Conditions -  °F | °C
As of 4:52 AM on Thursday 23 Oct 2014 (Local Time) from KHUT Reporting Station
Overcast Overcast  
Wind Chill: 62°   Ceiling: 2400
Heat Index: 62°   Visibility: 10mi
Dew Point: 57°   Wind: 7mph
Humidity: 84%   Direction: 170°S
Pressure: 30.06"   Gusts: NA
Location:  38.06°N, 97.93°W
Report Text: KHUT 230952Z AUTO 17006KT 10SM OVC024 17/14 A3006 RMK AO2 SLP162 T01670139
Loading
Personal Weather Stations






























Interactive Weather Map
Tropical Storm Tracking
New forecast layout! Learn more

10-Day Weather Forecast

Advertisements
Track Severe Weather on mobile